Time;durP1;ratioP1;P1;durP2;ratioP2;P2;SDS_P1;SDS_P2;PMS_P1;PMS_P2;Temp;Humidity;BMP_temperature;BMP_pressure;BME280_temperature;BME280_humidity;BME280_pressure;Samples;Min_cycle;Max_cycle;Signal;HPM_P1;HPM_P2
2023/09/14 00:01:50;;;;;;;11.85;4.78;;;;;;;;;;5816786;28;20042;-73
2023/09/14 00:04:41;;;;;;;4.15;2.47;;;;;;;;;;5817735;28;20100;-72
2023/09/14 00:07:32;;;;;;;6.45;2.45;;;;;;;;;;5819268;28;20502;-73
2023/09/14 00:10:23;;;;;;;9.68;2.67;;;;;;;;;;5819269;28;20050;-73
2023/09/14 00:13:14;;;;;;;10.25;2.22;;;;;;;;;;5817432;28;20046;-74
2023/09/14 00:16:05;;;;;;;2.58;2.38;;;;;;;;;;5818850;28;20486;-72
2023/09/14 00:18:56;;;;;;;6.38;2.42;;;;;;;;;;5819190;28;20047;-72
2023/09/14 00:21:46;;;;;;;2.67;1.15;;;;;;;;;;5818720;28;20054;-73
2023/09/14 00:24:37;;;;;;;1.33;0.95;;;;;;;;;;5818712;28;20042;-72
2023/09/14 00:27:28;;;;;;;1.50;0.80;;;;;;;;;;5818501;28;20073;-72
2023/09/14 00:30:23;;;;;;;0.68;0.60;;;;;;;;;;5818671;28;20065;-71
2023/09/14 00:33:13;;;;;;;2.83;1.15;;;;;;;;;;5817188;28;20050;-72
2023/09/14 00:36:04;;;;;;;1.15;1.02;;;;;;;;;;5818665;28;20054;-72
2023/09/14 00:38:55;;;;;;;1.45;1.08;;;;;;;;;;5818774;28;20061;-72
2023/09/14 00:41:46;;;;;;;3.25;0.95;;;;;;;;;;5818091;28;20039;-71
2023/09/14 00:44:36;;;;;;;0.70;0.70;;;;;;;;;;5817859;28;20042;-71
2023/09/14 00:47:27;;;;;;;0.90;0.90;;;;;;;;;;5818010;28;20046;-72
2023/09/14 00:50:20;;;;;;;2.03;1.45;;;;;;;;;;5800924;28;20053;-72
2023/09/14 00:53:14;;;;;;;1.92;0.82;;;;;;;;;;5817117;28;20051;-73
2023/09/14 00:56:06;;;;;;;1.42;1.08;;;;;;;;;;5818283;28;20050;-73
2023/09/14 00:58:58;;;;;;;2.65;1.00;;;;;;;;;;5817309;28;20106;-74
2023/09/14 01:01:49;;;;;;;3.67;1.17;;;;;;;;;;5816469;28;20042;-71
2023/09/14 01:04:41;;;;;;;1.10;1.02;;;;;;;;;;5816735;28;20046;-72
2023/09/14 01:07:32;;;;;;;1.58;0.95;;;;;;;;;;5817996;28;20050;-72
2023/09/14 01:10:23;;;;;;;0.60;0.55;;;;;;;;;;5816678;28;20482;-71
2023/09/14 01:13:29;;;;;;;0.70;0.60;;;;;;;;;;5818015;28;20053;-72
2023/09/14 01:16:46;;;;;;;4.20;1.67;;;;;;;;;;5816276;28;20047;-72
2023/09/14 01:19:50;;;;;;;1.42;1.15;;;;;;;;;;5816641;28;20125;-72
2023/09/14 01:23:15;;;;;;;0.95;0.93;;;;;;;;;;5816868;28;20056;-72
2023/09/14 01:26:06;;;;;;;0.75;0.50;;;;;;;;;;5817484;28;20456;-73
2023/09/14 01:28:59;;;;;;;0.60;0.60;;;;;;;;;;5818469;28;20413;-72
2023/09/14 01:31:49;;;;;;;1.30;0.95;;;;;;;;;;5818058;28;20035;-72
2023/09/14 01:34:40;;;;;;;1.20;1.05;;;;;;;;;;5817900;28;20482;-71
2023/09/14 01:37:32;;;;;;;2.28;1.10;;;;;;;;;;5817926;28;20125;-71
2023/09/14 01:40:23;;;;;;;0.90;0.73;;;;;;;;;;5817837;28;20042;-71
2023/09/14 01:43:15;;;;;;;2.33;1.05;;;;;;;;;;5816401;28;20045;-72
2023/09/14 01:46:07;;;;;;;3.22;0.82;;;;;;;;;;5816175;28;20049;-72
2023/09/14 01:48:58;;;;;;;2.00;1.65;;;;;;;;;;5818152;28;20474;-71
2023/09/14 01:51:49;;;;;;;1.23;1.08;;;;;;;;;;5818003;28;20052;-71
2023/09/14 01:54:40;;;;;;;1.55;0.60;;;;;;;;;;5819774;28;20050;-71
2023/09/14 01:57:31;;;;;;;0.90;0.45;;;;;;;;;;5821633;28;20057;-71
2023/09/14 02:00:22;;;;;;;0.35;0.35;;;;;;;;;;5821731;28;20060;-71
2023/09/14 02:03:12;;;;;;;0.60;0.60;;;;;;;;;;5821435;28;20054;-71
2023/09/14 02:06:03;;;;;;;1.25;1.15;;;;;;;;;;5821716;28;20489;-71
2023/09/14 02:08:54;;;;;;;1.83;0.80;;;;;;;;;;5821998;28;20046;-72
2023/09/14 02:11:45;;;;;;;0.70;0.70;;;;;;;;;;5821725;28;20046;-71
2023/09/14 02:14:35;;;;;;;1.30;0.93;;;;;;;;;;5821222;28;20089;-72
2023/09/14 02:17:26;;;;;;;1.00;0.80;;;;;;;;;;5821311;28;20057;-73
2023/09/14 02:20:17;;;;;;;1.35;0.85;;;;;;;;;;5821239;28;20069;-72
2023/09/14 02:23:09;;;;;;;1.63;0.60;;;;;;;;;;5821114;28;20050;-72
2023/09/14 02:25:59;;;;;;;0.88;0.63;;;;;;;;;;5821324;28;20077;-72
2023/09/14 02:28:50;;;;;;;0.55;0.55;;;;;;;;;;5821172;28;20441;-72
2023/09/14 02:31:41;;;;;;;1.48;0.75;;;;;;;;;;5820961;28;20050;-70
2023/09/14 02:34:31;;;;;;;1.05;0.82;;;;;;;;;;5820691;28;20050;-72
2023/09/14 02:37:22;;;;;;;0.63;0.50;;;;;;;;;;5820891;28;20053;-71
2023/09/14 02:40:13;;;;;;;0.38;0.38;;;;;;;;;;5835655;28;20046;-73
2023/09/14 02:43:04;;;;;;;0.98;0.40;;;;;;;;;;5821038;28;20145;-72
2023/09/14 02:45:55;;;;;;;0.70;0.55;;;;;;;;;;5821438;28;20042;-71
2023/09/14 02:48:46;;;;;;;1.90;1.10;;;;;;;;;;5820784;28;20058;-71
2023/09/14 02:51:37;;;;;;;0.63;0.52;;;;;;;;;;5820784;28;20133;-71
2023/09/14 02:54:28;;;;;;;2.15;0.98;;;;;;;;;;5820331;28;20053;-72
2023/09/14 02:57:19;;;;;;;0.50;0.50;;;;;;;;;;5820407;28;20050;-72
2023/09/14 03:00:16;;;;;;;3.00;1.13;;;;;;;;;;5816084;28;20042;-73
2023/09/14 03:03:11;;;;;;;0.90;0.85;;;;;;;;;;5819015;28;20116;-72
2023/09/14 03:06:03;;;;;;;2.38;1.00;;;;;;;;;;5819731;28;20058;-72
2023/09/14 03:08:54;;;;;;;0.93;0.55;;;;;;;;;;5820809;28;20053;-71
2023/09/14 03:11:45;;;;;;;0.30;0.30;;;;;;;;;;5820240;28;20050;-71
2023/09/14 03:14:36;;;;;;;2.20;0.85;;;;;;;;;;5818886;28;20061;-72
2023/09/14 03:17:26;;;;;;;0.57;0.57;;;;;;;;;;5820141;28;20046;-73
2023/09/14 03:20:17;;;;;;;0.40;0.40;;;;;;;;;;5820230;28;20662;-72
2023/09/14 03:23:08;;;;;;;0.80;0.68;;;;;;;;;;5820111;28;20062;-72
2023/09/14 03:25:59;;;;;;;0.60;0.60;;;;;;;;;;5820405;28;20046;-71
2023/09/14 03:28:50;;;;;;;1.27;0.60;;;;;;;;;;5819822;28;20039;-71
2023/09/14 03:31:41;;;;;;;0.80;0.80;;;;;;;;;;5818424;28;20174;-73
2023/09/14 03:34:32;;;;;;;1.27;0.75;;;;;;;;;;5819517;28;20133;-73
2023/09/14 03:37:23;;;;;;;1.20;0.90;;;;;;;;;;5818334;28;20065;-72
2023/09/14 03:40:13;;;;;;;0.50;0.50;;;;;;;;;;5819317;28;20046;-71
2023/09/14 03:43:04;;;;;;;1.15;0.75;;;;;;;;;;5819547;28;20133;-73
2023/09/14 03:45:57;;;;;;;1.55;0.93;;;;;;;;;;5820090;28;20483;-72
2023/09/14 03:48:48;;;;;;;5.10;1.50;;;;;;;;;;5819355;28;20050;-71
2023/09/14 03:51:39;;;;;;;2.97;1.10;;;;;;;;;;5819401;28;20267;-74
2023/09/14 03:54:29;;;;;;;1.67;0.95;;;;;;;;;;5819070;28;20238;-72
2023/09/14 03:57:21;;;;;;;1.13;0.77;;;;;;;;;;5819205;28;20053;-72
2023/09/14 04:00:14;;;;;;;1.88;0.68;;;;;;;;;;5817887;28;20070;-71
2023/09/14 04:03:04;;;;;;;1.27;0.90;;;;;;;;;;5818893;28;20414;-71
2023/09/14 04:05:55;;;;;;;0.90;0.85;;;;;;;;;;5819566;28;20038;-72
2023/09/14 04:08:46;;;;;;;13.48;1.38;;;;;;;;;;5819022;28;20137;-71
2023/09/14 04:11:37;;;;;;;1.10;1.00;;;;;;;;;;5817765;28;20118;-70
2023/09/14 04:14:28;;;;;;;1.40;0.65;;;;;;;;;;5818664;28;20469;-72
2023/09/14 04:17:19;;;;;;;0.95;0.82;;;;;;;;;;5817182;28;20050;-72
2023/09/14 04:20:10;;;;;;;1.27;1.10;;;;;;;;;;5818720;28;20042;-71
2023/09/14 04:23:01;;;;;;;2.33;1.52;;;;;;;;;;5818464;28;20411;-73
2023/09/14 04:25:51;;;;;;;3.28;1.75;;;;;;;;;;5819052;28;20054;-73
2023/09/14 04:28:42;;;;;;;3.30;0.90;;;;;;;;;;5818631;28;20046;-72
2023/09/14 04:31:34;;;;;;;1.98;1.25;;;;;;;;;;5818519;28;20053;-72
2023/09/14 04:34:25;;;;;;;1.58;1.02;;;;;;;;;;5818293;28;20053;-72
2023/09/14 04:37:16;;;;;;;2.28;1.40;;;;;;;;;;5818489;28;20069;-73
2023/09/14 04:40:09;;;;;;;2.05;1.55;;;;;;;;;;5818432;28;20129;-72
2023/09/14 04:43:00;;;;;;;11.55;1.52;;;;;;;;;;5818819;28;20049;-72
2023/09/14 04:45:51;;;;;;;2.05;1.42;;;;;;;;;;5818793;28;20070;-73
2023/09/14 04:48:42;;;;;;;2.35;1.77;;;;;;;;;;5818522;28;20057;-72
2023/09/14 04:51:33;;;;;;;1.95;1.33;;;;;;;;;;5801199;28;20140;-71
2023/09/14 04:54:24;;;;;;;1.45;1.35;;;;;;;;;;5818094;28;20046;-71
2023/09/14 04:57:15;;;;;;;4.22;1.85;;;;;;;;;;5818084;28;20470;-72
2023/09/14 05:00:09;;;;;;;1.55;1.45;;;;;;;;;;5818473;28;20053;-72
2023/09/14 05:03:03;;;;;;;1.92;1.48;;;;;;;;;;5818783;28;20050;-73
2023/09/14 05:05:55;;;;;;;2.67;1.67;;;;;;;;;;5818361;28;20049;-73
2023/09/14 05:08:45;;;;;;;3.75;2.60;;;;;;;;;;5816997;28;20042;-72
2023/09/14 05:11:37;;;;;;;3.40;1.95;;;;;;;;;;5818088;28;20066;-72
2023/09/14 05:14:27;;;;;;;3.15;1.77;;;;;;;;;;5817927;28;20146;-71
2023/09/14 05:17:18;;;;;;;4.75;1.90;;;;;;;;;;5818218;28;20563;-73
2023/09/14 05:20:10;;;;;;;7.90;2.10;;;;;;;;;;5817998;28;20054;-72
2023/09/14 05:23:01;;;;;;;1.77;1.50;;;;;;;;;;5818187;28;20039;-72
2023/09/14 05:25:52;;;;;;;2.75;1.58;;;;;;;;;;5818305;28;20057;-72
2023/09/14 05:28:42;;;;;;;1.70;1.52;;;;;;;;;;5819109;28;20047;-72
2023/09/14 05:31:34;;;;;;;2.03;1.58;;;;;;;;;;5822302;28;20473;-71
2023/09/14 05:34:24;;;;;;;2.22;1.58;;;;;;;;;;5822595;28;20542;-72
2023/09/14 05:37:15;;;;;;;4.57;1.95;;;;;;;;;;5821080;28;20572;-71
2023/09/14 05:40:09;;;;;;;2.33;1.92;;;;;;;;;;5822436;28;20049;-73
2023/09/14 05:43:00;;;;;;;1.85;1.65;;;;;;;;;;5822183;28;20129;-72
2023/09/14 05:45:51;;;;;;;3.65;1.50;;;;;;;;;;5822530;28;20543;-72
2023/09/14 05:48:42;;;;;;;3.20;1.77;;;;;;;;;;5820600;28;20434;-72
2023/09/14 05:51:34;;;;;;;4.30;1.77;;;;;;;;;;5821813;28;20186;-73
2023/09/14 05:54:24;;;;;;;1.52;1.35;;;;;;;;;;5821756;28;20042;-73
2023/09/14 05:57:16;;;;;;;2.20;1.23;;;;;;;;;;5821449;28;20046;-73
2023/09/14 06:00:12;;;;;;;1.50;1.30;;;;;;;;;;5821729;28;20050;-72
2023/09/14 06:03:03;;;;;;;5.65;1.23;;;;;;;;;;5821808;28;20502;-71
2023/09/14 06:05:54;;;;;;;4.32;1.67;;;;;;;;;;5822133;28;20054;-72
2023/09/14 06:08:46;;;;;;;5.68;2.00;;;;;;;;;;5820202;28;20437;-72
2023/09/14 06:11:37;;;;;;;1.75;1.35;;;;;;;;;;5821537;28;20121;-73
2023/09/14 06:14:28;;;;;;;1.58;1.05;;;;;;;;;;5821308;28;20054;-73
2023/09/14 06:17:19;;;;;;;2.15;1.60;;;;;;;;;;5821314;28;20058;-73
2023/09/14 06:20:10;;;;;;;2.97;1.75;;;;;;;;;;5821326;28;20133;-72
2023/09/14 06:23:01;;;;;;;2.60;1.60;;;;;;;;;;5821148;28;20054;-71
2023/09/14 06:25:52;;;;;;;2.65;1.70;;;;;;;;;;5821568;28;20042;-72
2023/09/14 06:28:43;;;;;;;3.03;2.28;;;;;;;;;;5821088;28;20054;-72
2023/09/14 06:31:34;;;;;;;1.13;1.02;;;;;;;;;;5820938;28;20050;-71
2023/09/14 06:34:25;;;;;;;1.88;1.58;;;;;;;;;;5821045;28;20054;-72
2023/09/14 06:37:16;;;;;;;2.60;1.67;;;;;;;;;;5820837;28;20133;-72
2023/09/14 06:40:08;;;;;;;1.63;1.10;;;;;;;;;;5820816;28;20043;-71
2023/09/14 06:42:59;;;;;;;2.17;1.75;;;;;;;;;;5821219;28;20565;-72
2023/09/14 06:45:50;;;;;;;2.67;1.35;;;;;;;;;;5820668;28;20049;-73
2023/09/14 06:48:41;;;;;;;2.17;1.70;;;;;;;;;;5835684;28;20132;-72
2023/09/14 06:51:32;;;;;;;3.72;1.65;;;;;;;;;;5819154;28;20387;-73
2023/09/14 06:54:23;;;;;;;1.20;1.10;;;;;;;;;;5820319;28;20046;-74
2023/09/14 06:57:14;;;;;;;1.85;1.20;;;;;;;;;;5820145;28;20064;-74
2023/09/14 07:00:15;;;;;;;1.65;1.25;;;;;;;;;;5819074;28;20042;-72
2023/09/14 07:03:06;;;;;;;1.77;1.38;;;;;;;;;;5820396;28;20054;-72
2023/09/14 07:05:58;;;;;;;7.22;1.50;;;;;;;;;;5820872;28;20141;-71
2023/09/14 07:08:49;;;;;;;1.20;1.10;;;;;;;;;;5819056;28;20051;-73
2023/09/14 07:11:40;;;;;;;1.40;1.27;;;;;;;;;;5820397;28;20216;-73
2023/09/14 07:14:31;;;;;;;0.50;0.50;;;;;;;;;;5820020;28;20402;-72
2023/09/14 07:17:22;;;;;;;0.77;0.77;;;;;;;;;;5819917;28;20049;-72
2023/09/14 07:20:13;;;;;;;3.85;1.10;;;;;;;;;;5820149;28;20094;-73
2023/09/14 07:23:04;;;;;;;2.90;1.55;;;;;;;;;;5818720;28;20076;-71
2023/09/14 07:25:57;;;;;;;3.17;2.08;;;;;;;;;;5820340;28;20066;-72
2023/09/14 07:28:48;;;;;;;5.22;1.42;;;;;;;;;;5819818;28;20501;-71
2023/09/14 07:31:39;;;;;;;4.38;1.15;;;;;;;;;;5819669;28;20489;-73
2023/09/14 07:34:31;;;;;;;2.20;1.48;;;;;;;;;;5819564;28;20054;-72
2023/09/14 07:37:21;;;;;;;0.55;0.50;;;;;;;;;;5819489;28;20061;-72
2023/09/14 07:40:12;;;;;;;1.10;1.00;;;;;;;;;;5819664;28;20474;-73
2023/09/14 07:43:03;;;;;;;2.92;1.25;;;;;;;;;;5819552;28;20134;-71
2023/09/14 07:45:55;;;;;;;7.10;1.38;;;;;;;;;;5818302;28;20042;-73
2023/09/14 07:48:46;;;;;;;9.95;1.13;;;;;;;;;;5819357;28;20046;-71
2023/09/14 07:51:37;;;;;;;1.88;1.15;;;;;;;;;;5818988;28;20086;-73
2023/09/14 07:54:28;;;;;;;21.27;1.17;;;;;;;;;;5817795;28;20046;-71
2023/09/14 07:57:19;;;;;;;1.20;1.05;;;;;;;;;;5818879;28;20513;-72
2023/09/14 08:00:10;;;;;;;0.55;0.55;;;;;;;;;;5833991;28;20527;-72
2023/09/14 08:03:01;;;;;;;4.18;1.35;;;;;;;;;;5818933;28;20057;-72
2023/09/14 08:05:52;;;;;;;3.63;0.60;;;;;;;;;;5819406;28;20053;-72
2023/09/14 08:08:43;;;;;;;0.98;0.73;;;;;;;;;;5834129;28;20053;-72
2023/09/14 08:11:35;;;;;;;0.30;0.28;;;;;;;;;;5818467;28;20137;-73
2023/09/14 08:14:26;;;;;;;0.82;0.68;;;;;;;;;;5817469;28;20379;-72
2023/09/14 08:17:17;;;;;;;1.13;1.02;;;;;;;;;;5818615;28;20061;-73
2023/09/14 08:20:08;;;;;;;1.40;1.00;;;;;;;;;;5818818;28;20552;-72
2023/09/14 08:22:59;;;;;;;0.80;0.68;;;;;;;;;;5819153;28;20045;-72
2023/09/14 08:25:49;;;;;;;2.05;1.15;;;;;;;;;;5819101;28;20046;-71
2023/09/14 08:28:40;;;;;;;2.00;1.05;;;;;;;;;;5818854;28;20049;-72
2023/09/14 08:31:31;;;;;;;4.53;1.60;;;;;;;;;;5818615;28;20047;-72
2023/09/14 08:34:22;;;;;;;1.40;1.00;;;;;;;;;;5818352;28;20046;-72
2023/09/14 08:37:13;;;;;;;0.90;0.88;;;;;;;;;;5818284;28;20046;-72
2023/09/14 08:40:06;;;;;;;1.10;0.93;;;;;;;;;;5818614;28;20046;-73
2023/09/14 08:42:59;;;;;;;1.55;1.30;;;;;;;;;;5818973;28;20756;-71
2023/09/14 08:45:51;;;;;;;9.90;1.05;;;;;;;;;;5817265;28;20563;-72
2023/09/14 08:48:45;;;;;;;1.35;1.10;;;;;;;;;;5817142;28;20465;-73
2023/09/14 08:51:39;;;;;;;1.85;1.05;;;;;;;;;;5818384;28;20049;-72
2023/09/14 08:54:30;;;;;;;0.70;0.70;;;;;;;;;;5818084;28;20046;-72
2023/09/14 08:57:22;;;;;;;1.05;0.77;;;;;;;;;;5816994;28;20038;-73
2023/09/14 09:00:17;;;;;;;1.88;1.08;;;;;;;;;;5818329;28;20461;-72
2023/09/14 09:03:08;;;;;;;3.25;1.70;;;;;;;;;;5816932;28;20050;-72
2023/09/14 09:05:59;;;;;;;1.67;1.13;;;;;;;;;;5823722;28;20440;-71
2023/09/14 09:08:49;;;;;;;1.42;1.33;;;;;;;;;;5823039;28;20038;-72
2023/09/14 09:11:40;;;;;;;1.55;1.33;;;;;;;;;;5822881;28;20048;-73
2023/09/14 09:14:31;;;;;;;1.17;1.08;;;;;;;;;;5821371;28;20069;-72
2023/09/14 09:17:22;;;;;;;1.15;1.05;;;;;;;;;;5822596;28;20451;-72
2023/09/14 09:20:25;;;;;;;2.22;1.67;;;;;;;;;;5821505;28;20043;-71
2023/09/14 09:23:20;;;;;;;1.63;1.05;;;;;;;;;;5822461;28;20178;-72
2023/09/14 09:26:11;;;;;;;4.32;1.58;;;;;;;;;;5821193;28;20046;-73
2023/09/14 09:29:22;;;;;;;8.20;1.90;;;;;;;;;;5822581;28;20054;-73
2023/09/14 09:32:21;;;;;;;2.55;1.33;;;;;;;;;;5822390;28;20120;-72
2023/09/14 09:35:19;;;;;;;1.80;1.23;;;;;;;;;;5822619;28;20057;-72
2023/09/14 09:38:13;;;;;;;1.92;1.52;;;;;;;;;;5822178;28;20129;-73
2023/09/14 09:41:11;;;;;;;2.22;1.52;;;;;;;;;;5820960;28;20054;-72
2023/09/14 09:44:13;;;;;;;1.55;1.15;;;;;;;;;;5820929;28;20090;-74
2023/09/14 09:47:05;;;;;;;1.67;1.25;;;;;;;;;;5836944;28;20058;-72
2023/09/14 09:49:56;;;;;;;4.25;2.30;;;;;;;;;;5822559;28;20121;-72
2023/09/14 09:52:48;;;;;;;2.35;1.70;;;;;;;;;;5822084;28;20135;-72
2023/09/14 09:55:39;;;;;;;3.72;1.75;;;;;;;;;;5822019;28;20054;-73
2023/09/14 09:58:38;;;;;;;2.95;2.20;;;;;;;;;;5820357;28;20046;-72
2023/09/14 10:01:30;;;;;;;1.80;1.48;;;;;;;;;;5822014;28;20390;-72
2023/09/14 10:04:21;;;;;;;3.42;2.25;;;;;;;;;;5821468;28;20053;-73
2023/09/14 10:07:21;;;;;;;3.30;1.83;;;;;;;;;;5821773;28;20050;-73
2023/09/14 10:10:12;;;;;;;3.00;1.85;;;;;;;;;;5821341;28;20051;-72
2023/09/14 10:13:05;;;;;;;4.90;0.98;;;;;;;;;;5821512;28;20129;-73
2023/09/14 10:15:56;;;;;;;5.43;1.17;;;;;;;;;;5820028;28;20050;-73
2023/09/14 10:18:49;;;;;;;1.63;1.45;;;;;;;;;;5821747;28;20502;-73
2023/09/14 10:21:41;;;;;;;2.05;1.70;;;;;;;;;;5821094;28;20046;-73
2023/09/14 10:24:32;;;;;;;1.73;1.30;;;;;;;;;;5821064;28;20043;-72
2023/09/14 10:27:27;;;;;;;1.08;0.98;;;;;;;;;;5821140;28;20053;-72
2023/09/14 10:30:20;;;;;;;2.20;1.33;;;;;;;;;;5819995;28;20053;-73
2023/09/14 10:33:10;;;;;;;3.47;2.05;;;;;;;;;;5820958;28;20053;-72
2023/09/14 10:36:04;;;;;;;2.08;1.60;;;;;;;;;;5819630;28;20046;-74
2023/09/14 10:38:55;;;;;;;5.28;1.73;;;;;;;;;;5821367;28;20050;-73
2023/09/14 10:41:46;;;;;;;3.72;2.63;;;;;;;;;;5819770;28;20523;-73
2023/09/14 10:44:37;;;;;;;3.65;2.17;;;;;;;;;;5820835;28;20050;-72
2023/09/14 10:47:36;;;;;;;4.53;2.45;;;;;;;;;;5819407;28;20046;-73
2023/09/14 10:50:27;;;;;;;1.85;1.25;;;;;;;;;;5820545;28;20327;-72
2023/09/14 10:53:22;;;;;;;4.90;1.75;;;;;;;;;;5819381;28;20057;-73
2023/09/14 10:56:30;;;;;;;2.38;1.50;;;;;;;;;;5819215;28;20042;-72
2023/09/14 10:59:51;;;;;;;3.75;1.55;;;;;;;;;;5819315;28;20047;-72
2023/09/14 11:02:45;;;;;;;1.25;1.15;;;;;;;;;;5820434;28;20061;-72
2023/09/14 11:05:46;;;;;;;1.70;1.45;;;;;;;;;;5820434;28;20070;-75
2023/09/14 11:09:01;;;;;;;3.67;1.30;;;;;;;;;;5820318;28;20133;-73
2023/09/14 11:11:54;;;;;;;2.53;1.77;;;;;;;;;;5820333;28;20046;-74
2023/09/14 11:15:15;;;;;;;1.70;1.42;;;;;;;;;;5819068;28;20046;-74
2023/09/14 11:18:05;;;;;;;2.45;1.58;;;;;;;;;;5820067;28;20519;-73
2023/09/14 11:20:57;;;;;;;2.60;1.85;;;;;;;;;;5820609;28;20397;-74
2023/09/14 11:23:48;;;;;;;2.13;1.30;;;;;;;;;;5818649;28;20053;-73
2023/09/14 11:26:45;;;;;;;2.42;1.52;;;;;;;;;;5817638;28;20359;-74
2023/09/14 11:29:43;;;;;;;4.68;2.58;;;;;;;;;;5818678;28;20046;-73
2023/09/14 11:32:38;;;;;;;4.10;1.92;;;;;;;;;;5819666;28;20048;-74
2023/09/14 11:35:34;;;;;;;4.50;2.30;;;;;;;;;;5818349;28;20061;-74
2023/09/14 11:38:30;;;;;;;3.47;2.10;;;;;;;;;;5818295;28;20125;-73
2023/09/14 11:41:52;;;;;;;2.38;1.92;;;;;;;;;;5819192;28;20605;-73
2023/09/14 11:44:53;;;;;;;6.53;3.00;;;;;;;;;;5819639;28;20043;-74
2023/09/14 11:47:51;;;;;;;3.60;2.53;;;;;;;;;;5794478;28;20045;-75
2023/09/14 11:50:47;;;;;;;4.45;2.60;;;;;;;;;;5818096;28;20354;-73
2023/09/14 11:53:40;;;;;;;2.75;2.08;;;;;;;;;;5834298;28;20162;-73
2023/09/14 11:56:30;;;;;;;4.03;2.70;;;;;;;;;;5818098;28;20608;-72
2023/09/14 11:59:29;;;;;;;4.07;2.25;;;;;;;;;;5819110;28;20489;-72
2023/09/14 12:02:20;;;;;;;3.33;2.65;;;;;;;;;;5819067;28;20121;-73
2023/09/14 12:05:11;;;;;;;2.70;1.83;;;;;;;;;;5819073;28;20058;-73
2023/09/14 12:08:16;;;;;;;7.07;3.00;;;;;;;;;;5817931;28;20050;-74
2023/09/14 12:11:07;;;;;;;1.40;1.30;;;;;;;;;;5815027;28;20054;-73
2023/09/14 12:13:58;;;;;;;1.85;1.33;;;;;;;;;;5818692;28;20054;-75
2023/09/14 12:16:50;;;;;;;1.92;1.42;;;;;;;;;;5816469;28;20418;-74
2023/09/14 12:19:45;;;;;;;2.05;1.40;;;;;;;;;;5813905;28;20042;-73
2023/09/14 12:22:36;;;;;;;3.13;2.00;;;;;;;;;;5816305;28;20054;-72
2023/09/14 12:25:27;;;;;;;3.35;2.05;;;;;;;;;;5816041;28;20050;-74
2023/09/14 12:28:20;;;;;;;1.05;0.90;;;;;;;;;;5817009;28;20050;-74
2023/09/14 12:31:11;;;;;;;1.73;1.40;;;;;;;;;;5811347;28;20065;-70
2023/09/14 12:34:03;;;;;;;4.22;1.17;;;;;;;;;;5817221;28;20061;-72
2023/09/14 12:36:54;;;;;;;1.13;0.95;;;;;;;;;;5808625;28;20085;-74
2023/09/14 12:39:51;;;;;;;1.15;0.82;;;;;;;;;;5809296;28;20042;-74
2023/09/14 12:42:43;;;;;;;0.57;0.53;;;;;;;;;;5812393;28;20133;-75
2023/09/14 12:45:35;;;;;;;1.13;0.73;;;;;;;;;;5816750;28;20292;-73
2023/09/14 12:48:29;;;;;;;1.30;0.68;;;;;;;;;;5817368;28;20054;-74
2023/09/14 12:51:21;;;;;;;0.65;0.65;;;;;;;;;;5817773;28;20054;-74
2023/09/14 12:54:13;;;;;;;0.73;0.63;;;;;;;;;;5817892;28;20050;-74
2023/09/14 12:57:14;;;;;;;0.45;0.45;;;;;;;;;;5817207;28;20528;-73
2023/09/14 13:00:17;;;;;;;0.63;0.40;;;;;;;;;;5816602;28;20050;-72
2023/09/14 13:03:09;;;;;;;0.93;0.38;;;;;;;;;;5816530;28;20165;-74
2023/09/14 13:06:02;;;;;;;4.50;2.28;;;;;;;;;;5832840;28;20134;-73
2023/09/14 13:08:53;;;;;;;1.50;1.13;;;;;;;;;;5817743;28;20050;-73
2023/09/14 13:11:51;;;;;;;0.85;0.50;;;;;;;;;;5817553;28;20058;-72
2023/09/14 13:14:43;;;;;;;2.13;1.33;;;;;;;;;;5817237;28;20053;-74
2023/09/14 13:17:34;;;;;;;1.45;0.90;;;;;;;;;;5817641;28;20294;-73
2023/09/14 13:20:30;;;;;;;1.55;0.88;;;;;;;;;;5817211;28;20390;-74
2023/09/14 13:23:21;;;;;;;1.98;1.08;;;;;;;;;;5817227;28;20061;-73
2023/09/14 13:26:12;;;;;;;0.85;0.73;;;;;;;;;;5816618;28;20100;-74
2023/09/14 13:29:03;;;;;;;1.08;0.80;;;;;;;;;;5816059;28;20125;-72
2023/09/14 13:31:54;;;;;;;0.98;0.80;;;;;;;;;;5797030;28;20038;-72
2023/09/14 13:34:45;;;;;;;2.05;1.25;;;;;;;;;;5794661;28;20062;-72
2023/09/14 13:37:37;;;;;;;1.15;0.68;;;;;;;;;;5802653;28;20083;-74
2023/09/14 13:40:29;;;;;;;1.30;1.20;;;;;;;;;;5808180;28;20059;-74
2023/09/14 13:43:20;;;;;;;4.80;0.75;;;;;;;;;;5794900;28;20073;-72
2023/09/14 13:46:11;;;;;;;0.40;0.40;;;;;;;;;;5794630;28;20110;-74
2023/09/14 13:49:02;;;;;;;1.58;0.60;;;;;;;;;;5812484;28;20049;-71
2023/09/14 13:51:53;;;;;;;0.93;0.60;;;;;;;;;;5801235;28;20398;-73
2023/09/14 13:54:43;;;;;;;0.50;0.47;;;;;;;;;;5798577;28;20047;-72
2023/09/14 13:57:36;;;;;;;1.13;0.60;;;;;;;;;;5801959;28;20043;-72
2023/09/14 14:00:26;;;;;;;1.83;0.93;;;;;;;;;;5797749;28;20050;-73
2023/09/14 14:03:18;;;;;;;0.90;0.70;;;;;;;;;;5798999;28;20114;-73
2023/09/14 14:06:09;;;;;;;0.77;0.45;;;;;;;;;;5797939;28;20051;-73
2023/09/14 14:09:00;;;;;;;0.65;0.55;;;;;;;;;;5799421;28;20502;-74
2023/09/14 14:11:51;;;;;;;0.93;0.50;;;;;;;;;;5798968;28;20035;-74
2023/09/14 14:14:41;;;;;;;0.30;0.30;;;;;;;;;;5798980;28;20057;-73
2023/09/14 14:17:32;;;;;;;1.27;0.40;;;;;;;;;;5798796;28;20053;-72
2023/09/14 14:20:23;;;;;;;1.33;0.60;;;;;;;;;;5798827;28;20051;-73
2023/09/14 14:23:14;;;;;;;0.32;0.32;;;;;;;;;;5798583;28;20047;-74
2023/09/14 14:26:05;;;;;;;0.82;0.70;;;;;;;;;;5798043;28;20371;-73
2023/09/14 14:28:56;;;;;;;1.85;0.80;;;;;;;;;;5797943;28;20046;-73
2023/09/14 14:31:46;;;;;;;0.30;0.30;;;;;;;;;;5798601;28;20047;-73
2023/09/14 14:34:37;;;;;;;1.58;0.65;;;;;;;;;;5798728;28;20135;-73
2023/09/14 14:37:28;;;;;;;0.65;0.65;;;;;;;;;;5798340;28;20051;-73
2023/09/14 14:40:19;;;;;;;0.43;0.35;;;;;;;;;;5798270;28;20470;-72
2023/09/14 14:43:29;;;;;;;0.43;0.32;;;;;;;;;;5797319;28;20466;-73
2023/09/14 14:46:20;;;;;;;1.42;0.98;;;;;;;;;;5798479;28;20039;-73
2023/09/14 14:49:12;;;;;;;0.80;0.63;;;;;;;;;;5796937;28;20124;-72
2023/09/14 14:52:03;;;;;;;3.05;0.65;;;;;;;;;;5798076;28;20054;-74
2023/09/14 14:54:54;;;;;;;2.03;1.00;;;;;;;;;;5798820;28;20632;-72
2023/09/14 14:57:45;;;;;;;4.13;0.40;;;;;;;;;;5797896;28;20050;-75
2023/09/14 15:00:38;;;;;;;2.72;0.68;;;;;;;;;;5797267;28;20047;-73
2023/09/14 15:03:29;;;;;;;0.38;0.38;;;;;;;;;;5796029;28;20628;-71
2023/09/14 15:06:20;;;;;;;0.50;0.40;;;;;;;;;;5796378;28;20403;-72
2023/09/14 15:09:12;;;;;;;1.42;0.80;;;;;;;;;;5797677;28;20498;-72
2023/09/14 15:12:05;;;;;;;2.30;0.63;;;;;;;;;;5797601;28;20047;-72
2023/09/14 15:14:55;;;;;;;0.95;0.60;;;;;;;;;;5798045;28;20111;-71
2023/09/14 15:17:47;;;;;;;2.58;0.85;;;;;;;;;;5797540;28;20395;-74
2023/09/14 15:20:38;;;;;;;7.65;0.88;;;;;;;;;;5797476;28;20058;-73
2023/09/14 15:23:29;;;;;;;1.85;0.45;;;;;;;;;;5797282;28;20058;-73
2023/09/14 15:26:19;;;;;;;0.80;0.45;;;;;;;;;;5797516;28;20089;-72
2023/09/14 15:29:10;;;;;;;3.40;0.75;;;;;;;;;;5789025;28;20046;-73
2023/09/14 15:32:01;;;;;;;0.98;0.50;;;;;;;;;;5795966;28;20046;-74
2023/09/14 15:34:52;;;;;;;0.70;0.57;;;;;;;;;;5797631;28;20397;-73
2023/09/14 15:37:42;;;;;;;7.93;1.20;;;;;;;;;;5797053;28;20614;-72
2023/09/14 15:40:33;;;;;;;1.35;0.52;;;;;;;;;;5795628;28;20054;-73
2023/09/14 15:43:24;;;;;;;1.35;0.77;;;;;;;;;;5796967;28;20430;-75
2023/09/14 15:46:18;;;;;;;1.27;0.90;;;;;;;;;;5795869;28;20066;-73
2023/09/14 15:49:10;;;;;;;0.82;0.52;;;;;;;;;;5796767;28;20442;-72
2023/09/14 15:52:02;;;;;;;1.00;0.85;;;;;;;;;;5796618;28;20051;-73
2023/09/14 15:54:52;;;;;;;0.70;0.38;;;;;;;;;;5787713;28;20050;-72
2023/09/14 15:57:44;;;;;;;1.33;0.55;;;;;;;;;;5796346;28;20049;-72
2023/09/14 16:00:35;;;;;;;0.77;0.38;;;;;;;;;;5796819;28;20394;-72
2023/09/14 16:03:26;;;;;;;2.33;1.02;;;;;;;;;;5796660;28;20053;-74
2023/09/14 16:06:17;;;;;;;0.88;0.88;;;;;;;;;;5795385;28;20142;-73
2023/09/14 16:09:11;;;;;;;2.88;0.50;;;;;;;;;;5796604;28;20043;-73
2023/09/14 16:12:03;;;;;;;1.17;0.90;;;;;;;;;;5796098;28;20506;-73
2023/09/14 16:14:54;;;;;;;0.77;0.60;;;;;;;;;;5797024;28;20047;-72
2023/09/14 16:17:45;;;;;;;2.55;0.80;;;;;;;;;;5796297;28;20394;-73
2023/09/14 16:20:36;;;;;;;1.35;0.85;;;;;;;;;;5796361;28;20566;-72
2023/09/14 16:23:29;;;;;;;1.17;0.68;;;;;;;;;;5796258;28;20038;-72
2023/09/14 16:26:19;;;;;;;2.47;0.50;;;;;;;;;;5794835;28;20173;-72
2023/09/14 16:29:10;;;;;;;0.90;0.75;;;;;;;;;;5795942;28;20061;-72
2023/09/14 16:32:02;;;;;;;0.40;0.40;;;;;;;;;;5795908;28;20051;-72
2023/09/14 16:34:53;;;;;;;3.05;0.73;;;;;;;;;;5796503;28;20046;-72
2023/09/14 16:37:44;;;;;;;7.07;1.10;;;;;;;;;;5795793;28;20050;-72
2023/09/14 16:40:35;;;;;;;0.70;0.70;;;;;;;;;;5795864;28;20053;-73
2023/09/14 16:43:26;;;;;;;1.40;0.90;;;;;;;;;;5795653;28;20069;-73
2023/09/14 16:46:18;;;;;;;1.27;0.80;;;;;;;;;;5795830;28;20081;-73
2023/09/14 16:49:24;;;;;;;0.80;0.63;;;;;;;;;;5795700;28;20113;-73
2023/09/14 16:52:15;;;;;;;0.73;0.70;;;;;;;;;;5795539;28;20055;-73
2023/09/14 16:55:06;;;;;;;0.65;0.65;;;;;;;;;;5794429;28;20042;-72
2023/09/14 16:57:57;;;;;;;1.25;0.77;;;;;;;;;;5796125;28;20047;-72
2023/09/14 17:00:48;;;;;;;1.60;0.68;;;;;;;;;;5795784;28;20054;-73
2023/09/14 17:03:39;;;;;;;2.85;0.88;;;;;;;;;;5794500;28;20134;-72
2023/09/14 17:06:29;;;;;;;0.60;0.60;;;;;;;;;;5794254;28;20043;-73
2023/09/14 17:09:21;;;;;;;1.35;0.93;;;;;;;;;;5794361;28;20046;-73
2023/09/14 17:12:11;;;;;;;1.80;1.27;;;;;;;;;;5795560;28;20617;-72
2023/09/14 17:15:03;;;;;;;0.40;0.40;;;;;;;;;;5794021;28;20051;-73